Time;durP1;ratioP1;P1;durP2;ratioP2;P2;SDS_P1;SDS_P2;PMS_P1;PMS_P2;Temp;Humidity;BMP_temperature;BMP_pressure;BME280_temperature;BME280_humidity;BME280_pressure;Samples;Min_cycle;Max_cycle;Signal;HPM_P1;HPM_P2
2023/10/09 00:01:44;;;;;;;13.05;5.03;;;16.80;35.10;;;;;;6215140;28;20054;-77
2023/10/09 00:04:45;;;;;;;12.95;5.68;;;16.80;34.90;;;;;;6189517;28;20062;-77
2023/10/09 00:07:47;;;;;;;10.27;5.35;;;16.80;34.50;;;;;;6206580;28;20046;-77
2023/10/09 00:10:52;;;;;;;14.85;5.35;;;16.70;36.40;;;;;;6202850;28;20108;-77
2023/10/09 00:13:58;;;;;;;17.80;5.00;;;16.70;35.50;;;;;;6191127;28;20054;-77
2023/10/09 00:17:18;;;;;;;14.95;5.50;;;16.70;35.60;;;;;;6197156;28;20054;-76
2023/10/09 00:20:25;;;;;;;10.70;5.30;;;16.70;37.90;;;;;;6192425;28;20136;-76
2023/10/09 00:23:27;;;;;;;11.90;5.50;;;16.70;35.70;;;;;;6196544;28;20058;-76
2023/10/09 00:26:30;;;;;;;13.35;5.20;;;16.70;37.70;;;;;;6217514;28;20061;-77
2023/10/09 00:29:34;;;;;;;11.38;5.35;;;16.70;37.10;;;;;;6195718;28;20050;-76
2023/10/09 00:32:37;;;;;;;9.85;5.28;;;16.70;36.40;;;;;;6220142;28;20054;-76
2023/10/09 00:38:50;;;;;;;10.90;5.65;;;16.80;36.80;;;;;;6202712;28;20446;-76
2023/10/09 00:41:54;;;;;;;10.30;5.30;;;16.70;35.70;;;;;;6188795;28;20517;-76
2023/10/09 00:44:55;;;;;;;14.85;5.85;;;16.80;36.00;;;;;;6210277;28;20062;-76
2023/10/09 00:47:59;;;;;;;11.15;5.18;;;16.70;35.20;;;;;;6194242;28;20077;-75
2023/10/09 00:51:01;;;;;;;10.25;5.35;;;16.80;34.50;;;;;;6218215;28;20468;-76
2023/10/09 00:54:28;;;;;;;14.02;5.25;;;16.70;35.10;;;;;;6219848;28;20049;-76
2023/10/09 00:57:24;;;;;;;11.35;5.18;;;16.70;34.80;;;;;;6193689;28;20058;-76
2023/10/09 01:00:52;;;;;;;12.32;5.20;;;16.70;33.60;;;;;;6190340;28;20050;-76
2023/10/09 01:03:51;;;;;;;17.75;5.00;;;16.60;33.60;;;;;;6197764;28;20050;-76
2023/10/09 01:10:34;;;;;;;10.95;5.28;;;16.50;34.50;;;;;;6182546;28;20061;-76
2023/10/09 01:13:39;;;;;;;10.88;5.07;;;16.40;34.40;;;;;;6192459;28;20050;-78
2023/10/09 01:16:42;;;;;;;14.30;5.18;;;16.30;34.90;;;;;;6195220;28;20116;-77
2023/10/09 01:19:44;;;;;;;12.73;5.70;;;16.30;36.70;;;;;;6216389;28;20501;-77
2023/10/09 01:22:46;;;;;;;10.75;5.10;;;16.20;37.60;;;;;;6202005;28;20534;-77
2023/10/09 01:25:49;;;;;;;11.10;5.18;;;16.10;37.10;;;;;;6218937;28;20701;-77
2023/10/09 01:28:54;;;;;;;11.73;5.45;;;16.00;37.30;;;;;;6211267;28;20054;-77
2023/10/09 01:32:04;;;;;;;12.15;5.00;;;16.00;37.30;;;;;;6194572;28;20058;-77
2023/10/09 01:35:14;;;;;;;11.57;5.78;;;16.00;37.30;;;;;;6207412;28;20061;-76
2023/10/09 01:38:16;;;;;;;10.02;4.68;;;15.90;36.30;;;;;;6182443;28;20065;-77
2023/10/09 01:41:19;;;;;;;10.82;5.07;;;16.00;34.10;;;;;;6207275;28;20054;-77
2023/10/09 01:44:22;;;;;;;12.18;4.97;;;16.10;33.40;;;;;;6200843;28;20117;-78
2023/10/09 01:47:25;;;;;;;11.40;5.03;;;16.00;32.10;;;;;;6195537;28;20515;-77
2023/10/09 01:50:31;;;;;;;9.93;4.28;;;16.00;33.80;;;;;;6201650;28;20054;-77
2023/10/09 01:53:38;;;;;;;10.88;4.95;;;16.00;32.70;;;;;;6194949;28;20094;-78
2023/10/09 01:56:45;;;;;;;12.88;5.20;;;16.00;32.80;;;;;;6170426;28;20105;-77
2023/10/09 01:59:49;;;;;;;12.45;5.20;;;16.00;32.60;;;;;;6189518;28;20054;-78
2023/10/09 02:02:51;;;;;;;9.88;4.30;;;15.90;31.70;;;;;;6194548;28;20065;-77
2023/10/09 02:05:53;;;;;;;7.72;4.25;;;15.90;31.40;;;;;;6192421;28;20145;-78
2023/10/09 02:08:56;;;;;;;11.60;5.00;;;15.90;31.70;;;;;;6198903;28;20489;-78
2023/10/09 02:11:58;;;;;;;12.55;4.95;;;15.90;31.20;;;;;;6195297;28;20125;-78
2023/10/09 02:15:06;;;;;;;9.70;4.93;;;15.90;31.30;;;;;;6198072;28;20065;-78
2023/10/09 02:21:39;;;;;;;10.90;4.80;;;15.90;33.20;;;;;;6194053;28;20058;-77
2023/10/09 02:24:57;;;;;;;10.32;4.70;;;15.80;31.20;;;;;;6181294;28;20046;-76
2023/10/09 02:27:59;;;;;;;8.73;4.68;;;15.80;33.40;;;;;;6192659;28;20046;-79
2023/10/09 02:31:09;;;;;;;10.68;5.05;;;15.80;32.80;;;;;;6197651;28;20422;-78
2023/10/09 02:34:11;;;;;;;10.88;4.75;;;15.60;32.20;;;;;;6182131;28;20053;-78
2023/10/09 02:37:13;;;;;;;11.20;5.38;;;15.60;34.40;;;;;;6207942;28;20054;-78
2023/10/09 02:40:27;;;;;;;8.00;4.07;;;15.60;34.60;;;;;;6201856;28;20062;-79
2023/10/09 02:43:34;;;;;;;9.60;4.30;;;15.50;34.60;;;;;;6185605;28;20054;-78
2023/10/09 02:46:35;;;;;;;12.43;5.25;;;15.50;35.30;;;;;;6203244;28;20058;-78
2023/10/09 02:49:39;;;;;;;9.35;4.45;;;15.50;36.30;;;;;;6212003;28;20092;-76
2023/10/09 02:52:41;;;;;;;10.85;5.38;;;15.50;37.50;;;;;;6223307;28;20107;-78
2023/10/09 02:55:53;;;;;;;10.70;5.00;;;15.40;38.30;;;;;;6205871;28;20137;-77
2023/10/09 02:58:55;;;;;;;12.18;4.72;;;15.40;38.80;;;;;;6194242;28;20065;-77
2023/10/09 03:01:59;;;;;;;10.15;5.28;;;15.40;38.00;;;;;;6228886;28;20057;-78
2023/10/09 03:05:03;;;;;;;11.35;5.20;;;15.40;38.90;;;;;;6213775;28;20386;-77
2023/10/09 03:08:04;;;;;;;13.32;5.35;;;15.40;38.40;;;;;;6197596;28;20061;-77
2023/10/09 03:11:06;;;;;;;11.80;5.15;;;15.50;37.40;;;;;;6204247;28;20422;-78
2023/10/09 03:14:10;;;;;;;12.23;5.15;;;15.50;37.30;;;;;;6201770;28;20053;-77
2023/10/09 03:17:12;;;;;;;9.43;4.90;;;15.40;36.60;;;;;;6222046;28;20054;-77
2023/10/09 03:20:14;;;;;;;9.88;4.10;;;15.40;38.00;;;;;;6208422;28;20065;-77
2023/10/09 03:23:16;;;;;;;8.52;4.00;;;15.40;37.90;;;;;;6205927;28;20053;-78
2023/10/09 03:26:17;;;;;;;10.88;4.78;;;15.40;36.80;;;;;;6212918;28;20050;-77
2023/10/09 03:29:22;;;;;;;12.93;4.45;;;15.40;36.90;;;;;;6214184;28;20616;-77
2023/10/09 03:32:24;;;;;;;10.32;4.50;;;15.40;37.90;;;;;;6216981;28;20053;-77
2023/10/09 03:35:26;;;;;;;10.80;4.40;;;15.30;37.50;;;;;;6218276;28;20050;-77
2023/10/09 03:38:34;;;;;;;10.90;4.50;;;15.30;39.50;;;;;;6217793;28;20050;-78
2023/10/09 03:41:41;;;;;;;9.57;3.97;;;15.30;39.60;;;;;;6195812;28;20065;-78
2023/10/09 03:44:44;;;;;;;9.45;4.40;;;15.30;38.10;;;;;;6204275;22;20408;-76
2023/10/09 03:47:48;;;;;;;11.00;4.32;;;15.30;39.40;;;;;;6200602;28;20497;-76
2023/10/09 03:51:01;;;;;;;11.27;4.43;;;15.20;37.40;;;;;;6236045;28;20061;-76
2023/10/09 03:54:07;;;;;;;10.45;4.68;;;15.30;38.00;;;;;;6212538;28;20053;-76
2023/10/09 03:57:09;;;;;;;14.18;4.82;;;15.20;38.00;;;;;;6211080;28;20057;-76
2023/10/09 04:00:27;;;;;;;9.50;4.68;;;15.20;37.40;;;;;;6218941;28;20049;-76
2023/10/09 04:03:28;;;;;;;11.13;4.85;;;15.20;38.80;;;;;;6219879;28;20518;-76
2023/10/09 04:06:33;;;;;;;10.07;5.05;;;15.20;38.70;;;;;;6228177;28;20054;-76
2023/10/09 04:09:44;;;;;;;8.70;3.97;;;15.20;37.20;;;;;;6221256;28;20042;-76
2023/10/09 04:12:49;;;;;;;9.38;4.25;;;15.30;36.40;;;;;;6217749;28;20061;-76
2023/10/09 04:15:53;;;;;;;9.02;4.28;;;15.30;35.40;;;;;;6211569;28;20061;-76
2023/10/09 04:18:56;;;;;;;10.15;3.97;;;15.20;35.30;;;;;;6234401;28;20452;-75
2023/10/09 04:21:58;;;;;;;9.32;4.00;;;15.20;34.40;;;;;;6218865;28;20054;-75
2023/10/09 04:25:00;;;;;;;8.32;3.92;;;15.20;34.30;;;;;;6222022;28;20050;-75
2023/10/09 04:28:21;;;;;;;9.30;3.85;;;15.20;35.10;;;;;;6225490;28;20050;-76
2023/10/09 04:31:31;;;;;;;17.45;4.50;;;15.20;35.10;;;;;;6203004;28;20057;-76
2023/10/09 04:34:38;;;;;;;10.32;4.80;;;15.20;33.00;;;;;;6199150;28;20058;-75
2023/10/09 04:37:44;;;;;;;11.95;4.07;;;15.10;33.20;;;;;;6214527;28;20065;-76
2023/10/09 04:43:50;;;;;;;9.57;4.30;;;15.10;33.20;;;;;;6231102;28;20540;-74
2023/10/09 04:53:23;;;;;;;11.48;4.07;;;15.10;30.50;;;;;;6223408;28;20136;-76
2023/10/09 04:56:24;;;;;;;11.73;4.60;;;15.20;30.00;;;;;;6226263;28;20071;-75
2023/10/09 04:59:26;;;;;;;10.20;4.22;;;15.20;28.60;;;;;;6220847;28;20064;-75
2023/10/09 05:02:36;;;;;;;8.70;3.80;;;15.10;29.10;;;;;;6221366;28;20089;-76
2023/10/09 05:08:47;;;;;;;13.25;4.45;;;15.10;28.80;;;;;;6227626;28;20057;-77
2023/10/09 05:15:09;;;;;;;10.20;4.43;;;14.90;29.90;;;;;;6197935;28;20057;-75
2023/10/09 05:18:16;;;;;;;10.98;4.47;;;14.90;30.30;;;;;;6243297;28;20053;-76
2023/10/09 05:24:45;;;;;;;11.75;5.00;;;14.80;30.20;;;;;;6202961;28;20455;-75
2023/10/09 05:27:50;;;;;;;12.98;4.78;;;14.70;30.90;;;;;;6213632;28;20058;-76
2023/10/09 05:31:06;;;;;;;12.80;5.85;;;14.60;32.60;;;;;;6213247;28;20141;-77
2023/10/09 05:34:08;;;;;;;11.80;5.10;;;14.60;33.40;;;;;;6214392;28;20478;-75
2023/10/09 05:37:25;;;;;;;10.82;5.47;;;14.70;30.20;;;;;;6218540;28;20058;-76
2023/10/09 05:40:31;;;;;;;12.15;5.45;;;14.60;30.00;;;;;;6225734;28;20053;-77
2023/10/09 05:53:34;;;;;;;13.52;5.70;;;14.40;32.50;;;;;;6211066;28;20422;-76
2023/10/09 06:09:49;;;;;;;14.18;5.38;;;14.30;33.40;;;;;;6214401;28;20070;-75
2023/10/09 06:13:03;;;;;;;12.48;4.45;;;14.30;31.40;;;;;;6237781;28;20060;-75
2023/10/09 06:16:31;;;;;;;10.77;4.20;;;14.20;35.40;;;;;;6215048;28;20053;-76
2023/10/09 06:19:42;;;;;;;11.68;4.05;;;14.20;34.00;;;;;;6231584;28;20143;-74
2023/10/09 06:22:56;;;;;;;9.90;3.92;;;14.10;36.30;;;;;;6217193;28;20096;-74
2023/10/09 06:26:05;;;;;;;11.63;4.65;;;14.10;35.80;;;;;;6214174;28;20065;-75
2023/10/09 06:29:30;;;;;;;12.55;4.45;;;14.10;35.70;;;;;;6215179;28;20053;-76
2023/10/09 06:35:35;;;;;;;10.20;3.55;;;14.30;34.60;;;;;;6227682;28;20343;-76
2023/10/09 06:39:50;;;;;;;9.60;3.80;;;14.30;34.10;;;;;;6223221;28;20386;-76
2023/10/09 06:42:09;;;;;;;14.18;4.50;;;14.40;34.50;;;;;;6204406;28;20058;-76
2023/10/09 06:51:42;;;;;;;17.42;4.18;;;14.90;27.40;;;;;;6232516;28;20053;-76
2023/10/09 06:54:50;;;;;;;12.52;4.60;;;15.00;25.30;;;;;;6213636;28;20049;-77
2023/10/09 06:57:54;;;;;;;10.65;4.15;;;15.10;24.80;;;;;;6214819;28;20064;-77
2023/10/09 07:04:18;;;;;;;9.73;4.05;;;15.50;17.80;;;;;;6208262;28;20054;-77
2023/10/09 07:07:20;;;;;;;21.38;4.13;;;15.60;17.70;;;;;;6211605;28;20057;-77
2023/10/09 07:10:28;;;;;;;9.10;3.78;;;15.80;18.70;;;;;;6224152;28;20053;-77
2023/10/09 07:13:36;;;;;;;12.60;4.25;;;16.00;16.50;;;;;;6238577;28;20053;-77
2023/10/09 07:16:38;;;;;;;18.42;5.40;;;16.10;15.50;;;;;;6213122;28;20060;-77
2023/10/09 07:22:56;;;;;;;9.52;4.22;;;16.60;14.30;;;;;;6214007;28;20568;-76
2023/10/09 07:25:58;;;;;;;9.02;4.35;;;17.00;8.40;;;;;;6213598;28;20061;-77
2023/10/09 07:29:16;;;;;;;14.93;5.10;;;17.60;5.50;;;;;;6216809;28;20080;-73
2023/10/09 07:32:20;;;;;;;11.80;4.00;;;18.20;1.00;;;;;;6212481;28;20513;-73
2023/10/09 07:38:44;;;;;;;41.08;4.75;;;19.00;1.00;;;;;;6220752;28;20053;-75
2023/10/09 07:41:56;;;;;;;65.22;6.93;;;19.20;1.00;;;;;;6243295;28;20053;-73
2023/10/09 07:45:11;;;;;;;16.67;3.97;;;19.20;1.00;;;;;;6210822;28;20073;-74
2023/10/09 07:48:14;;;;;;;19.55;4.57;;;18.80;1.00;;;;;;6195657;28;20129;-73
2023/10/09 07:51:16;;;;;;;11.43;4.03;;;18.70;1.00;;;;;;6242322;28;20049;-72
2023/10/09 07:54:31;;;;;;;15.20;4.32;;;18.70;1.00;;;;;;6220556;28;20143;-74
2023/10/09 07:57:39;;;;;;;10.20;4.68;;;18.60;1.00;;;;;;6244138;28;20084;-77
2023/10/09 08:04:10;;;;;;;11.25;4.10;;;18.60;1.00;;;;;;6197571;28;20606;-76
2023/10/09 08:07:25;;;;;;;9.90;4.10;;;18.60;1.00;;;;;;6211972;28;20069;-76
2023/10/09 08:17:37;;;;;;;13.88;3.95;;;18.60;1.00;;;;;;6220880;28;20085;-73
2023/10/09 08:21:19;;;;;;;10.43;4.07;;;18.50;1.00;;;;;;6244451;28;20060;-73
2023/10/09 08:30:41;;;;;;;13.85;4.50;;;18.60;1.00;;;;;;6235750;28;20058;-77
2023/10/09 08:33:44;;;;;;;11.53;4.67;;;18.50;1.00;;;;;;6194849;28;20054;-76
2023/10/09 08:36:52;;;;;;;11.10;4.07;;;18.50;1.00;;;;;;6245024;28;20068;-76
2023/10/09 08:39:54;;;;;;;11.00;4.10;;;18.60;1.00;;;;;;6195965;28;20061;-77
2023/10/09 08:42:55;;;;;;;9.27;3.95;;;18.60;1.00;;;;;;6235492;28;20046;-77
2023/10/09 08:46:03;;;;;;;24.45;4.53;;;18.80;1.00;;;;;;6238093;28;20438;-77
2023/10/09 08:49:08;;;;;;;13.27;4.13;;;19.00;1.00;;;;;;6220343;28;20054;-77
2023/10/09 08:52:10;;;;;;;12.20;4.03;;;19.50;1.00;;;;;;6244257;28;20049;-77
2023/10/09 08:55:17;;;;;;;10.25;4.18;;;20.00;1.00;;;;;;6219534;28;20057;-75
2023/10/09 08:58:28;;;;;;;21.42;5.10;;;20.00;1.00;;;;;;6232663;28;20072;-76
2023/10/09 09:01:32;;;;;;;10.30;4.38;;;20.10;1.00;;;;;;6243952;28;20088;-77
2023/10/09 09:04:34;;;;;;;9.82;4.45;;;20.00;1.00;;;;;;6220040;28;20056;-75
2023/10/09 09:07:39;;;;;;;9.15;4.22;;;20.00;1.00;;;;;;6243630;28;20428;-76
2023/10/09 09:10:46;;;;;;;11.23;4.47;;;19.80;1.00;;;;;;6219364;28;20053;-75
2023/10/09 09:13:48;;;;;;;10.10;4.45;;;19.60;1.00;;;;;;6214989;28;20060;-77
2023/10/09 09:16:52;;;;;;;10.38;4.10;;;19.60;1.00;;;;;;6219847;28;20477;-77
2023/10/09 09:19:54;;;;;;;10.00;4.15;;;19.60;1.00;;;;;;6243486;28;20053;-76
2023/10/09 09:22:59;;;;;;;10.88;4.47;;;19.70;1.00;;;;;;6219936;28;20061;-76
2023/10/09 09:26:11;;;;;;;15.25;4.85;;;20.10;1.00;;;;;;6203185;28;20064;-76
2023/10/09 09:29:13;;;;;;;11.80;4.97;;;20.70;1.00;;;;;;6223507;28;20057;-76
2023/10/09 09:32:16;;;;;;;10.52;4.82;;;21.30;1.00;;;;;;6243387;28;20068;-73
2023/10/09 09:35:19;;;;;;;10.02;4.78;;;21.60;1.00;;;;;;6216640;28;20520;-74
2023/10/09 09:38:23;;;;;;;23.42;5.22;;;22.00;1.00;;;;;;6242659;28;20122;-75
2023/10/09 09:41:25;;;;;;;10.93;3.90;;;21.90;1.00;;;;;;6218762;28;20417;-80
2023/10/09 09:44:30;;;;;;;11.50;5.10;;;22.30;1.00;;;;;;6232080;28;20058;-73
2023/10/09 09:47:37;;;;;;;12.93;5.27;;;22.10;1.00;;;;;;6218783;28;20141;-76
2023/10/09 09:50:46;;;;;;;13.73;4.78;;;22.10;1.00;;;;;;6243315;28;20053;-74
2023/10/09 09:53:48;;;;;;;10.85;4.53;;;22.30;1.00;;;;;;6194369;28;20054;-75
2023/10/09 09:56:54;;;;;;;9.82;4.43;;;22.70;1.00;;;;;;6241941;28;20099;-74
2023/10/09 09:59:56;;;;;;;11.27;4.35;;;23.10;1.00;;;;;;6190986;28;20050;-77
2023/10/09 10:02:58;;;;;;;12.95;4.95;;;22.90;1.00;;;;;;6240515;28;20050;-75
2023/10/09 10:06:00;;;;;;;9.82;4.55;;;23.40;1.00;;;;;;6219120;28;20053;-77
2023/10/09 10:09:02;;;;;;;11.32;4.95;;;23.80;1.00;;;;;;6219014;28;20054;-75
2023/10/09 10:12:09;;;;;;;10.55;4.68;;;23.90;1.00;;;;;;6217523;28;20107;-76
2023/10/09 10:15:17;;;;;;;13.45;5.00;;;24.00;1.00;;;;;;6200000;28;20512;-76
2023/10/09 10:18:20;;;;;;;11.13;4.50;;;24.40;1.00;;;;;;6193957;28;20051;-77
2023/10/09 10:21:34;;;;;;;11.77;4.68;;;24.80;1.00;;;;;;6211363;28;20314;-79
2023/10/09 10:24:51;;;;;;;12.88;5.00;;;24.80;1.00;;;;;;6196292;28;20065;-81
2023/10/09 10:28:00;;;;;;;11.27;5.05;;;24.70;1.00;;;;;;6199740;28;20052;-83
2023/10/09 10:31:02;;;;;;;9.95;4.90;;;25.00;1.00;;;;;;6242564;28;20053;-79
2023/10/09 10:34:07;;;;;;;9.48;4.20;;;25.60;1.00;;;;;;6200762;28;20049;-78
2023/10/09 10:37:11;;;;;;;10.43;4.63;;;25.80;1.00;;;;;;6242581;28;20134;-78
2023/10/09 10:40:19;;;;;;;11.38;4.40;;;26.00;1.00;;;;;;6217921;28;20053;-77
2023/10/09 10:46:44;;;;;;;10.05;4.53;;;25.80;1.00;;;;;;6242467;28;20056;-76
2023/10/09 10:49:49;;;;;;;8.95;4.30;;;26.50;1.00;;;;;;6192552;28;20061;-76
2023/10/09 10:52:57;;;;;;;10.02;3.83;;;26.90;1.00;;;;;;6246517;28;20714;-77
2023/10/09 10:59:26;;;;;;;8.38;3.85;;;27.80;1.00;;;;;;6223074;28;20053;-80
2023/10/09 11:02:31;;;;;;;7.88;3.63;;;27.60;1.00;;;;;;6198355;28;20062;-80
2023/10/09 11:05:39;;;;;;;9.98;3.95;;;27.20;1.00;;;;;;6246045;28;20045;-74
2023/10/09 11:08:50;;;;;;;7.65;3.33;;;27.00;1.00;;;;;;6198027;28;20057;-75
2023/10/09 11:11:55;;;;;;;11.38;4.03;;;27.10;1.00;;;;;;6246958;28;20061;-74
2023/10/09 11:15:07;;;;;;;8.02;4.13;;;27.30;1.00;;;;;;6191275;28;20054;-75
2023/10/09 11:18:16;;;;;;;10.07;3.90;;;27.10;1.00;;;;;;6245826;28;20420;-75
2023/10/09 11:24:25;;;;;;;9.10;3.58;;;27.60;1.00;;;;;;6245313;28;20167;-80
2023/10/09 11:27:32;;;;;;;12.30;3.60;;;28.00;1.00;;;;;;6198381;28;20441;-77
2023/10/09 11:30:35;;;;;;;10.25;3.65;;;28.40;1.00;;;;;;6244311;28;20049;-81
2023/10/09 11:33:38;;;;;;;9.43;3.83;;;28.90;1.00;;;;;;6196821;28;20082;-83
2023/10/09 11:36:48;;;;;;;11.23;4.28;;;29.30;1.00;;;;;;6246277;28;20136;-82
2023/10/09 11:39:51;;;;;;;10.27;4.47;;;29.20;1.00;;;;;;6212315;28;20051;-83
2023/10/09 11:42:57;;;;;;;19.77;4.13;;;29.40;1.00;;;;;;6207839;28;20490;-84
2023/10/09 11:46:03;;;;;;;10.65;4.00;;;29.40;1.00;;;;;;6227165;28;20509;-82
2023/10/09 11:49:25;;;;;;;12.27;4.28;;;29.70;1.00;;;;;;6197529;28;20180;-82
2023/10/09 11:52:47;;;;;;;8.40;3.60;;;29.50;1.00;;;;;;6211728;28;20098;-82
2023/10/09 11:55:48;;;;;;;6.90;3.40;;;29.60;1.00;;;;;;6246117;28;20196;-81
2023/10/09 11:58:51;;;;;;;9.45;3.90;;;29.90;1.00;;;;;;6228764;28;20053;-81
2023/10/09 12:01:54;;;;;;;10.80;3.92;;;30.10;1.00;;;;;;6219808;28;20058;-82
2023/10/09 12:04:56;;;;;;;9.82;3.70;;;29.80;1.00;;;;;;6245535;28;20048;-81
2023/10/09 12:08:01;;;;;;;9.63;4.22;;;30.20;1.00;;;;;;6221497;28;20531;-81
2023/10/09 12:11:08;;;;;;;13.82;3.78;;;30.10;1.00;;;;;;6245257;28;20045;-81
2023/10/09 12:14:10;;;;;;;;;;;30.10;1.00;;;;;;6221860;28;20064;-81
2023/10/09 12:17:12;;;;;;;8.50;3.80;;;30.10;1.00;;;;;;6221186;28;20411;-81
2023/10/09 12:20:29;;;;;;;9.88;3.80;;;30.10;1.00;;;;;;6244718;28;20053;-81
2023/10/09 12:23:35;;;;;;;23.23;4.47;;;30.30;1.00;;;;;;6196252;28;20054;-81
2023/10/09 12:26:39;;;;;;;7.95;4.18;;;29.90;1.00;;;;;;6245571;28;20118;-81
2023/10/09 12:29:44;;;;;;;10.43;3.83;;;29.40;1.00;;;;;;6215528;28;20050;-80
2023/10/09 12:32:49;;;;;;;9.90;3.40;;;29.00;1.00;;;;;;6196354;28;20062;-81
2023/10/09 12:35:51;;;;;;;8.93;3.60;;;28.90;1.00;;;;;;6222718;28;20053;-82
2023/10/09 12:38:54;;;;;;;8.85;3.70;;;29.10;1.00;;;;;;6244293;28;20063;-82
2023/10/09 12:41:58;;;;;;;11.10;3.85;;;29.40;1.00;;;;;;6220016;28;20490;-81
2023/10/09 12:45:08;;;;;;;11.10;3.88;;;29.70;1.00;;;;;;6225069;28;20069;-81
2023/10/09 12:48:09;;;;;;;11.23;4.03;;;30.00;1.00;;;;;;6196039;28;20062;-81
2023/10/09 12:51:16;;;;;;;8.75;3.88;;;30.20;1.00;;;;;;6243320;28;20092;-81
2023/10/09 12:54:20;;;;;;;9.77;3.70;;;30.30;1.00;;;;;;6195857;28;20054;-81
2023/10/09 12:57:21;;;;;;;8.77;3.92;;;30.60;1.00;;;;;;6242811;28;20052;-81
2023/10/09 13:00:25;;;;;;;11.25;3.50;;;30.70;1.00;;;;;;6213385;28;20120;-80
2023/10/09 13:03:32;;;;;;;9.20;3.33;;;31.00;1.00;;;;;;6195688;28;20517;-81
2023/10/09 13:06:38;;;;;;;12.30;3.72;;;31.50;1.00;;;;;;6202912;28;20050;-80
2023/10/09 13:09:51;;;;;;;8.80;3.55;;;31.40;1.00;;;;;;6210518;28;20140;-82
2023/10/09 13:13:00;;;;;;;14.23;4.15;;;30.50;1.00;;;;;;6230770;28;20140;-79
2023/10/09 13:16:04;;;;;;;9.82;3.97;;;29.90;1.00;;;;;;6219595;28;20068;-80
2023/10/09 13:19:10;;;;;;;7.03;3.30;;;30.10;1.00;;;;;;6243790;28;20448;-80
2023/10/09 13:22:16;;;;;;;8.90;3.70;;;30.70;1.00;;;;;;6219749;28;20057;-81
2023/10/09 13:25:24;;;;;;;9.68;3.78;;;31.30;1.00;;;;;;6195129;28;20058;-81
2023/10/09 13:28:37;;;;;;;8.30;3.53;;;31.10;1.00;;;;;;6211245;28;20614;-80
2023/10/09 13:31:46;;;;;;;13.05;4.30;;;30.90;1.00;;;;;;6219709;28;20052;-79
2023/10/09 13:34:49;;;;;;;10.10;3.95;;;30.90;1.00;;;;;;6226110;28;20500;-81
2023/10/09 13:37:54;;;;;;;9.20;3.95;;;30.90;1.00;;;;;;6219662;28;20060;-82
2023/10/09 13:40:55;;;;;;;9.00;3.72;;;31.10;1.00;;;;;;6243187;28;20513;-84
2023/10/09 13:43:57;;;;;;;10.20;3.72;;;30.90;1.00;;;;;;6227440;28;20068;-81
2023/10/09 13:46:59;;;;;;;8.68;3.28;;;30.60;1.00;;;;;;6218937;28;20524;-82
2023/10/09 13:50:01;;;;;;;17.02;4.45;;;30.40;1.00;;;;;;6242648;28;20060;-81
2023/10/09 13:53:08;;;;;;;10.20;3.65;;;30.40;1.00;;;;;;6219394;28;20094;-83
2023/10/09 13:56:09;;;;;;;10.47;4.17;;;30.30;1.00;;;;;;6194965;28;20054;-81
2023/10/09 13:59:11;;;;;;;10.40;3.45;;;30.30;1.00;;;;;;6223590;28;20053;-81
2023/10/09 14:02:17;;;;;;;65.45;7.03;;;30.40;1.00;;;;;;6242519;28;20057;-81
2023/10/09 14:05:20;;;;;;;8.25;3.45;;;30.10;1.00;;;;;;6194551;28;20208;-81
2023/10/09 14:08:22;;;;;;;10.52;4.15;;;29.60;1.00;;;;;;6242002;28;20061;-80
2023/10/09 14:11:24;;;;;;;9.55;3.70;;;29.60;1.00;;;;;;6219302;28;20058;-81
2023/10/09 14:14:27;;;;;;;43.47;5.32;;;29.70;1.00;;;;;;6239907;28;20053;-81
2023/10/09 14:17:28;;;;;;;24.25;4.85;;;29.70;1.00;;;;;;6219862;28;20115;-82
2023/10/09 14:20:31;;;;;;;215.77;14.60;;;29.70;1.00;;;;;;6240825;28;20056;-81
2023/10/09 14:23:34;;;;;;;25.00;4.60;;;29.70;1.00;;;;;;6218945;28;20081;-79
2023/10/09 14:26:36;;;;;;;24.02;5.38;;;29.70;1.00;;;;;;6246330;28;20057;-78
2023/10/09 14:29:38;;;;;;;11.18;3.72;;;29.60;1.00;;;;;;6218846;28;20084;-79
2023/10/09 14:32:51;;;;;;;14.73;3.83;;;29.50;1.00;;;;;;6246528;28;20053;-79
2023/10/09 14:35:53;;;;;;;12.00;3.63;;;29.50;1.00;;;;;;6215894;28;20501;-79
2023/10/09 14:38:56;;;;;;;26.67;4.28;;;29.40;1.00;;;;;;6246977;28;20244;-78
2023/10/09 14:41:57;;;;;;;11.85;3.80;;;29.40;1.00;;;;;;6223120;28;20131;-78
2023/10/09 14:44:59;;;;;;;15.88;4.25;;;29.00;1.00;;;;;;6232820;28;20093;-78
2023/10/09 14:48:01;;;;;;;14.30;4.07;;;28.40;1.00;;;;;;6246813;28;20071;-77
2023/10/09 14:51:06;;;;;;;12.70;3.78;;;28.00;1.00;;;;;;6223039;28;20076;-77
2023/10/09 14:54:08;;;;;;;11.70;3.97;;;27.70;1.00;;;;;;6246611;28;20456;-77
2023/10/09 14:57:11;;;;;;;16.40;3.53;;;27.40;1.00;;;;;;6221452;28;20065;-77
2023/10/09 15:00:14;;;;;;;19.90;4.00;;;27.20;1.00;;;;;;6239905;28;20168;-77
2023/10/09 15:03:19;;;;;;;11.82;4.25;;;27.10;1.00;;;;;;6223245;28;20060;-78
2023/10/09 15:06:21;;;;;;;11.93;3.90;;;26.80;1.00;;;;;;6198272;28;20051;-79
2023/10/09 15:09:28;;;;;;;20.13;4.03;;;26.60;1.00;;;;;;6244972;28;20088;-77
2023/10/09 15:12:29;;;;;;;12.35;3.90;;;26.50;1.00;;;;;;6200119;28;20081;-78
2023/10/09 15:15:31;;;;;;;27.90;4.70;;;26.30;1.00;;;;;;6246491;28;20061;-77
2023/10/09 15:18:33;;;;;;;17.98;4.15;;;26.20;1.00;;;;;;6197097;28;20070;-80
2023/10/09 15:21:35;;;;;;;21.25;4.53;;;26.10;1.00;;;;;;6244894;28;20057;-74
2023/10/09 15:24:37;;;;;;;259.40;15.52;;;26.00;1.00;;;;;;6219827;28;20057;-76
2023/10/09 15:27:39;;;;;;;18.70;4.18;;;26.00;1.00;;;;;;6232686;28;20049;-78
2023/10/09 15:30:41;;;;;;;9.88;3.70;;;25.90;1.00;;;;;;6221138;28;20523;-77
2023/10/09 15:33:43;;;;;;;16.50;3.80;;;25.90;1.00;;;;;;6217983;28;20516;-77
2023/10/09 15:36:46;;;;;;;14.13;4.10;;;25.60;1.00;;;;;;6220733;28;20058;-77
2023/10/09 15:43:26;;;;;;;43.05;4.38;;;25.40;1.00;;;;;;6213591;28;20053;-79
2023/10/09 15:46:33;;;;;;;10.15;3.92;;;25.20;1.00;;;;;;6244428;28;20420;-79
2023/10/09 15:49:41;;;;;;;17.70;4.35;;;25.00;1.00;;;;;;6197152;28;20050;-79
2023/10/09 15:52:43;;;;;;;17.02;3.85;;;24.90;1.00;;;;;;6245143;28;20421;-78
2023/10/09 15:55:44;;;;;;;25.95;4.82;;;24.80;1.00;;;;;;6221891;28;20057;-78
2023/10/09 15:58:46;;;;;;;23.42;3.80;;;24.70;1.00;;;;;;6232202;28;20077;-78
2023/10/09 16:01:48;;;;;;;11.95;4.07;;;24.60;1.00;;;;;;6244696;28;20064;-79
2023/10/09 16:04:50;;;;;;;21.13;4.32;;;24.40;1.00;;;;;;6219451;28;20183;-80
2023/10/09 16:07:52;;;;;;;14.80;3.70;;;24.40;1.00;;;;;;6244453;28;20053;-78
2023/10/09 16:10:54;;;;;;;9.95;3.60;;;24.30;1.00;;;;;;6219591;28;20046;-78
2023/10/09 16:13:56;;;;;;;9.45;3.72;;;24.20;1.00;;;;;;6226437;28;20049;-77
2023/10/09 16:16:58;;;;;;;11.25;4.30;;;24.10;1.00;;;;;;6243784;28;20060;-77
2023/10/09 16:20:00;;;;;;;15.88;4.53;;;24.00;1.00;;;;;;6220840;28;20139;-75
2023/10/09 16:23:04;;;;;;;14.85;3.88;;;24.00;1.00;;;;;;6243511;28;20536;-77
2023/10/09 16:26:07;;;;;;;10.23;3.72;;;24.00;1.00;;;;;;6220144;28;20131;-76
2023/10/09 16:29:09;;;;;;;16.88;4.35;;;23.80;1.00;;;;;;6224727;28;20057;-77
2023/10/09 16:32:12;;;;;;;10.32;3.85;;;23.80;1.00;;;;;;6243873;28;20489;-77
2023/10/09 16:35:13;;;;;;;17.23;4.55;;;23.60;1.00;;;;;;6220173;28;20053;-78
2023/10/09 16:38:16;;;;;;;20.20;4.20;;;23.50;1.00;;;;;;6243480;28;20069;-77
2023/10/09 16:41:18;;;;;;;37.20;5.03;;;23.40;1.00;;;;;;6219776;28;20049;-77
2023/10/09 16:44:20;;;;;;;30.90;5.07;;;23.30;1.00;;;;;;6241495;28;20065;-78
2023/10/09 16:47:22;;;;;;;38.30;4.95;;;23.10;1.00;;;;;;6219949;28;20612;-77
2023/10/09 16:50:27;;;;;;;16.65;3.95;;;22.80;1.00;;;;;;6243322;28;20115;-78
2023/10/09 16:53:30;;;;;;;13.55;4.10;;;22.60;1.00;;;;;;6195482;28;20090;-77
2023/10/09 16:56:33;;;;;;;23.85;4.63;;;22.50;1.00;;;;;;6241798;28;20050;-77
2023/10/09 16:59:35;;;;;;;25.90;4.32;;;22.30;1.00;;;;;;6219438;28;20054;-78
2023/10/09 17:02:38;;;;;;;27.52;5.47;;;22.10;1.00;;;;;;6243515;28;20049;-78
2023/10/09 17:05:55;;;;;;;28.58;4.97;;;21.90;1.00;;;;;;6220020;28;20054;-78
2023/10/09 17:08:57;;;;;;;18.45;3.88;;;21.70;1.00;;;;;;6195243;28;20050;-78
2023/10/09 17:12:00;;;;;;;19.52;5.22;;;21.50;1.00;;;;;;6243163;28;20136;-78
2023/10/09 17:15:01;;;;;;;11.23;3.95;;;21.30;1.00;;;;;;6211448;28;20061;-78
2023/10/09 17:18:03;;;;;;;18.48;3.85;;;21.10;1.00;;;;;;6243323;28;20056;-78
2023/10/09 17:21:05;;;;;;;87.97;6.45;;;20.90;1.00;;;;;;6219265;28;20062;-78
2023/10/09 17:24:10;;;;;;;21.98;4.20;;;20.80;1.00;;;;;;6242240;28;20150;-77
2023/10/09 17:27:17;;;;;;;15.95;3.97;;;20.60;1.00;;;;;;6218089;28;20414;-76
2023/10/09 17:30:19;;;;;;;80.57;6.82;;;20.40;1.00;;;;;;6186754;28;20426;-77
2023/10/09 17:33:22;;;;;;;25.77;4.70;;;20.30;1.00;;;;;;6241201;28;20045;-77
2023/10/09 17:36:26;;;;;;;20.30;3.72;;;20.10;1.00;;;;;;6218140;28;20512;-79
2023/10/09 17:39:28;;;;;;;12.13;4.38;;;20.00;1.00;;;;;;6242220;28;20053;-78
2023/10/09 17:42:29;;;;;;;18.10;4.40;;;19.80;1.00;;;;;;6222309;28;20416;-78
2023/10/09 17:45:33;;;;;;;15.45;3.42;;;19.70;1.00;;;;;;6224933;28;20069;-77